sensor_id;sensor_type;location;lat;lon;timestamp;P1;durP1;ratioP1;P2;durP2;ratioP2
74059;SDS011;62414;53.436;8.828;2024-02-23T00:02:18;1.40;;;0.20;;
74059;SDS011;62414;53.436;8.828;2024-02-23T00:04:44;2.77;;;0.30;;
74059;SDS011;62414;53.436;8.828;2024-02-23T00:07:09;1.60;;;0.20;;
74059;SDS011;62414;53.436;8.828;2024-02-23T00:09:35;1.80;;;0.20;;
74059;SDS011;62414;53.436;8.828;2024-02-23T00:12:00;2.17;;;0.20;;
74059;SDS011;62414;53.436;8.828;2024-02-23T00:14:27;1.10;;;0.20;;
74059;SDS011;62414;53.436;8.828;2024-02-23T00:16:53;1.33;;;0.13;;
74059;SDS011;62414;53.436;8.828;2024-02-23T00:19:18;1.13;;;0.10;;
74059;SDS011;62414;53.436;8.828;2024-02-23T00:21:44;1.50;;;0.10;;
74059;SDS011;62414;53.436;8.828;2024-02-23T00:24:09;1.33;;;0.10;;
74059;SDS011;62414;53.436;8.828;2024-02-23T00:26:35;0.70;;;0.10;;
74059;SDS011;62414;53.436;8.828;2024-02-23T00:29:02;1.27;;;0.10;;
74059;SDS011;62414;53.436;8.828;2024-02-23T00:31:29;0.88;;;0.10;;
74059;SDS011;62414;53.436;8.828;2024-02-23T00:33:54;1.20;;;0.10;;
74059;SDS011;62414;53.436;8.828;2024-02-23T00:36:20;1.90;;;0.10;;
74059;SDS011;62414;53.436;8.828;2024-02-23T00:38:45;0.80;;;0.10;;
74059;SDS011;62414;53.436;8.828;2024-02-23T00:41:11;0.65;;;0.10;;
74059;SDS011;62414;53.436;8.828;2024-02-23T00:43:40;1.33;;;0.10;;
74059;SDS011;62414;53.436;8.828;2024-02-23T00:46:06;0.73;;;0.10;;
74059;SDS011;62414;53.436;8.828;2024-02-23T00:48:33;0.80;;;0.10;;
74059;SDS011;62414;53.436;8.828;2024-02-23T00:50:58;1.03;;;0.10;;
74059;SDS011;62414;53.436;8.828;2024-02-23T00:53:24;0.60;;;0.10;;
74059;SDS011;62414;53.436;8.828;2024-02-23T00:55:49;0.80;;;0.10;;
74059;SDS011;62414;53.436;8.828;2024-02-23T00:58:15;0.90;;;0.10;;
74059;SDS011;62414;53.436;8.828;2024-02-23T01:00:40;1.63;;;0.10;;
74059;SDS011;62414;53.436;8.828;2024-02-23T01:03:06;0.67;;;0.10;;
74059;SDS011;62414;53.436;8.828;2024-02-23T01:05:33;0.50;;;0.10;;
74059;SDS011;62414;53.436;8.828;2024-02-23T01:07:58;0.88;;;0.10;;
74059;SDS011;62414;53.436;8.828;2024-02-23T01:10:24;0.90;;;0.10;;
74059;SDS011;62414;53.436;8.828;2024-02-23T01:12:49;2.15;;;0.10;;
74059;SDS011;62414;53.436;8.828;2024-02-23T01:15:15;0.53;;;0.10;;
74059;SDS011;62414;53.436;8.828;2024-02-23T01:17:40;0.70;;;0.10;;
74059;SDS011;62414;53.436;8.828;2024-02-23T01:20:06;0.77;;;0.10;;
74059;SDS011;62414;53.436;8.828;2024-02-23T01:22:33;3.00;;;0.20;;
74059;SDS011;62414;53.436;8.828;2024-02-23T01:24:59;0.60;;;0.10;;
74059;SDS011;62414;53.436;8.828;2024-02-23T01:27:24;0.30;;;0.00;;
74059;SDS011;62414;53.436;8.828;2024-02-23T01:29:50;0.70;;;0.00;;
74059;SDS011;62414;53.436;8.828;2024-02-23T01:32:15;0.40;;;0.10;;
74059;SDS011;62414;53.436;8.828;2024-02-23T01:34:41;0.70;;;0.10;;
74059;SDS011;62414;53.436;8.828;2024-02-23T01:37:06;0.60;;;0.10;;
74059;SDS011;62414;53.436;8.828;2024-02-23T01:39:33;1.03;;;0.10;;
74059;SDS011;62414;53.436;8.828;2024-02-23T01:41:59;2.65;;;0.10;;
74059;SDS011;62414;53.436;8.828;2024-02-23T01:44:24;0.50;;;0.10;;
74059;SDS011;62414;53.436;8.828;2024-02-23T01:46:50;0.65;;;0.00;;
74059;SDS011;62414;53.436;8.828;2024-02-23T01:49:15;0.50;;;0.10;;
74059;SDS011;62414;53.436;8.828;2024-02-23T01:51:41;0.50;;;0.10;;
74059;SDS011;62414;53.436;8.828;2024-02-23T01:54:07;1.10;;;0.10;;
74059;SDS011;62414;53.436;8.828;2024-02-23T01:56:35;0.95;;;0.10;;
74059;SDS011;62414;53.436;8.828;2024-02-23T01:59:02;1.23;;;0.10;;
74059;SDS011;62414;53.436;8.828;2024-02-23T02:01:27;0.67;;;0.10;;
74059;SDS011;62414;53.436;8.828;2024-02-23T02:03:53;2.92;;;0.20;;
74059;SDS011;62414;53.436;8.828;2024-02-23T02:06:18;1.27;;;0.10;;
74059;SDS011;62414;53.436;8.828;2024-02-23T02:08:44;2.33;;;0.20;;
74059;SDS011;62414;53.436;8.828;2024-02-23T02:11:10;3.10;;;0.20;;
74059;SDS011;62414;53.436;8.828;2024-02-23T02:13:37;1.27;;;0.10;;
74059;SDS011;62414;53.436;8.828;2024-02-23T02:16:03;1.73;;;0.13;;
74059;SDS011;62414;53.436;8.828;2024-02-23T02:18:29;8.23;;;0.40;;
74059;SDS011;62414;53.436;8.828;2024-02-23T02:20:55;1.40;;;0.13;;
74059;SDS011;62414;53.436;8.828;2024-02-23T02:23:21;1.10;;;0.10;;
74059;SDS011;62414;53.436;8.828;2024-02-23T02:25:51;1.17;;;0.20;;
74059;SDS011;62414;53.436;8.828;2024-02-23T02:28:17;1.38;;;0.20;;
74059;SDS011;62414;53.436;8.828;2024-02-23T02:30:44;2.65;;;0.20;;
74059;SDS011;62414;53.436;8.828;2024-02-23T02:33:10;3.20;;;0.30;;
74059;SDS011;62414;53.436;8.828;2024-02-23T02:35:35;1.60;;;0.20;;
74059;SDS011;62414;53.436;8.828;2024-02-23T02:38:01;1.17;;;0.10;;
74059;SDS011;62414;53.436;8.828;2024-02-23T02:40:26;3.07;;;0.27;;
74059;SDS011;62414;53.436;8.828;2024-02-23T02:42:52;0.95;;;0.10;;
74059;SDS011;62414;53.436;8.828;2024-02-23T02:45:17;1.53;;;0.10;;
74059;SDS011;62414;53.436;8.828;2024-02-23T02:47:44;1.33;;;0.10;;
74059;SDS011;62414;53.436;8.828;2024-02-23T02:50:10;1.10;;;0.10;;
74059;SDS011;62414;53.436;8.828;2024-02-23T02:52:35;1.83;;;0.20;;
74059;SDS011;62414;53.436;8.828;2024-02-23T02:55:01;1.60;;;0.20;;
74059;SDS011;62414;53.436;8.828;2024-02-23T02:57:26;1.77;;;0.20;;
74059;SDS011;62414;53.436;8.828;2024-02-23T02:59:52;1.27;;;0.10;;
74059;SDS011;62414;53.436;8.828;2024-02-23T03:02:17;1.33;;;0.20;;
74059;SDS011;62414;53.436;8.828;2024-02-23T03:04:47;1.57;;;0.30;;
74059;SDS011;62414;53.436;8.828;2024-02-23T03:07:13;2.67;;;0.20;;
74059;SDS011;62414;53.436;8.828;2024-02-23T03:09:38;2.07;;;0.27;;
74059;SDS011;62414;53.436;8.828;2024-02-23T03:12:04;2.38;;;0.10;;
74059;SDS011;62414;53.436;8.828;2024-02-23T03:14:30;2.97;;;0.30;;
74059;SDS011;62414;53.436;8.828;2024-02-23T03:16:55;1.50;;;0.17;;
74059;SDS011;62414;53.436;8.828;2024-02-23T03:19:21;1.23;;;0.20;;
74059;SDS011;62414;53.436;8.828;2024-02-23T03:21:48;3.07;;;0.23;;
74059;SDS011;62414;53.436;8.828;2024-02-23T03:24:13;2.08;;;0.30;;
74059;SDS011;62414;53.436;8.828;2024-02-23T03:26:39;1.77;;;0.20;;
74059;SDS011;62414;53.436;8.828;2024-02-23T03:29:04;2.93;;;0.30;;
74059;SDS011;62414;53.436;8.828;2024-02-23T03:31:30;3.43;;;0.30;;
74059;SDS011;62414;53.436;8.828;2024-02-23T03:33:55;2.53;;;0.20;;
74059;SDS011;62414;53.436;8.828;2024-02-23T03:36:21;1.90;;;0.28;;
74059;SDS011;62414;53.436;8.828;2024-02-23T03:38:48;2.97;;;0.50;;
74059;SDS011;62414;53.436;8.828;2024-02-23T03:41:13;1.70;;;0.30;;
74059;SDS011;62414;53.436;8.828;2024-02-23T03:43:39;3.97;;;0.40;;
74059;SDS011;62414;53.436;8.828;2024-02-23T03:46:05;1.45;;;0.20;;
74059;SDS011;62414;53.436;8.828;2024-02-23T03:48:31;2.23;;;0.40;;
74059;SDS011;62414;53.436;8.828;2024-02-23T03:50:56;2.75;;;0.40;;
74059;SDS011;62414;53.436;8.828;2024-02-23T03:53:22;2.73;;;0.40;;
74059;SDS011;62414;53.436;8.828;2024-02-23T03:55:49;4.20;;;0.80;;
74059;SDS011;62414;53.436;8.828;2024-02-23T03:58:14;3.50;;;0.47;;
74059;SDS011;62414;53.436;8.828;2024-02-23T04:00:40;5.33;;;0.60;;
74059;SDS011;62414;53.436;8.828;2024-02-23T04:03:05;3.20;;;0.70;;
74059;SDS011;62414;53.436;8.828;2024-02-23T04:05:31;4.20;;;0.60;;
74059;SDS011;62414;53.436;8.828;2024-02-23T04:07:56;3.43;;;0.60;;
74059;SDS011;62414;53.436;8.828;2024-02-23T04:10:22;6.32;;;0.80;;
74059;SDS011;62414;53.436;8.828;2024-02-23T04:12:49;4.20;;;0.80;;
74059;SDS011;62414;53.436;8.828;2024-02-23T04:15:14;4.85;;;1.00;;
74059;SDS011;62414;53.436;8.828;2024-02-23T04:17:40;4.63;;;0.80;;
74059;SDS011;62414;53.436;8.828;2024-02-23T04:20:06;4.32;;;1.00;;
74059;SDS011;62414;53.436;8.828;2024-02-23T04:22:32;8.10;;;1.40;;
74059;SDS011;62414;53.436;8.828;2024-02-23T04:24:58;6.25;;;1.20;;
74059;SDS011;62414;53.436;8.828;2024-02-23T04:27:23;5.20;;;1.57;;
74059;SDS011;62414;53.436;8.828;2024-02-23T04:29:50;5.60;;;1.67;;
74059;SDS011;62414;53.436;8.828;2024-02-23T04:32:16;5.15;;;1.50;;
74059;SDS011;62414;53.436;8.828;2024-02-23T04:34:41;6.85;;;1.63;;
74059;SDS011;62414;53.436;8.828;2024-02-23T04:37:07;9.73;;;2.10;;
74059;SDS011;62414;53.436;8.828;2024-02-23T04:39:32;6.37;;;1.87;;
74059;SDS011;62414;53.436;8.828;2024-02-23T04:41:58;7.35;;;1.70;;
74059;SDS011;62414;53.436;8.828;2024-02-23T04:44:23;3.90;;;1.40;;
74059;SDS011;62414;53.436;8.828;2024-02-23T04:46:50;5.53;;;1.90;;
74059;SDS011;62414;53.436;8.828;2024-02-23T04:49:16;6.53;;;1.60;;
74059;SDS011;62414;53.436;8.828;2024-02-23T04:51:41;7.37;;;1.83;;
74059;SDS011;62414;53.436;8.828;2024-02-23T04:54:06;5.50;;;1.40;;
74059;SDS011;62414;53.436;8.828;2024-02-23T04:56:32;5.03;;;1.40;;
74059;SDS011;62414;53.436;8.828;2024-02-23T04:58:58;7.10;;;1.37;;
74059;SDS011;62414;53.436;8.828;2024-02-23T05:01:23;3.58;;;1.42;;
74059;SDS011;62414;53.436;8.828;2024-02-23T05:03:50;4.93;;;1.37;;
74059;SDS011;62414;53.436;8.828;2024-02-23T05:06:15;4.18;;;1.00;;
74059;SDS011;62414;53.436;8.828;2024-02-23T05:08:41;3.70;;;0.83;;
74059;SDS011;62414;53.436;8.828;2024-02-23T05:11:06;3.90;;;0.75;;
74059;SDS011;62414;53.436;8.828;2024-02-23T05:13:32;3.43;;;0.60;;
74059;SDS011;62414;53.436;8.828;2024-02-23T05:15:57;5.03;;;0.80;;
74059;SDS011;62414;53.436;8.828;2024-02-23T05:18:23;4.40;;;0.70;;
74059;SDS011;62414;53.436;8.828;2024-02-23T05:20:50;3.25;;;0.50;;
74059;SDS011;62414;53.436;8.828;2024-02-23T05:23:15;3.88;;;0.65;;
74059;SDS011;62414;53.436;8.828;2024-02-23T05:25:41;4.10;;;0.80;;
74059;SDS011;62414;53.436;8.828;2024-02-23T05:28:06;4.40;;;0.70;;
74059;SDS011;62414;53.436;8.828;2024-02-23T05:30:32;3.53;;;0.63;;
74059;SDS011;62414;53.436;8.828;2024-02-23T05:32:58;2.93;;;0.50;;
74059;SDS011;62414;53.436;8.828;2024-02-23T05:35:23;3.03;;;0.70;;
74059;SDS011;62414;53.436;8.828;2024-02-23T05:37:50;3.30;;;0.60;;
74059;SDS011;62414;53.436;8.828;2024-02-23T05:40:16;4.88;;;0.80;;
74059;SDS011;62414;53.436;8.828;2024-02-23T05:42:41;3.33;;;0.83;;
74059;SDS011;62414;53.436;8.828;2024-02-23T05:45:07;3.50;;;0.75;;
74059;SDS011;62414;53.436;8.828;2024-02-23T05:47:33;4.75;;;0.82;;
74059;SDS011;62414;53.436;8.828;2024-02-23T05:49:59;4.03;;;1.03;;
74059;SDS011;62414;53.436;8.828;2024-02-23T05:52:25;4.10;;;1.07;;
74059;SDS011;62414;53.436;8.828;2024-02-23T05:54:51;6.43;;;1.27;;
74059;SDS011;62414;53.436;8.828;2024-02-23T05:57:17;3.08;;;1.08;;
74059;SDS011;62414;53.436;8.828;2024-02-23T05:59:42;6.30;;;1.53;;
74059;SDS011;62414;53.436;8.828;2024-02-23T06:02:08;5.00;;;1.47;;
74059;SDS011;62414;53.436;8.828;2024-02-23T06:04:33;4.50;;;1.60;;
74059;SDS011;62414;53.436;8.828;2024-02-23T06:06:59;4.23;;;1.63;;
74059;SDS011;62414;53.436;8.828;2024-02-23T06:09:24;5.03;;;1.63;;
74059;SDS011;62414;53.436;8.828;2024-02-23T06:11:51;5.43;;;1.52;;
74059;SDS011;62414;53.436;8.828;2024-02-23T06:14:17;8.32;;;1.73;;
74059;SDS011;62414;53.436;8.828;2024-02-23T06:16:43;6.07;;;2.03;;
74059;SDS011;62414;53.436;8.828;2024-02-23T06:19:08;8.27;;;1.80;;
74059;SDS011;62414;53.436;8.828;2024-02-23T06:21:34;7.03;;;1.65;;
74059;SDS011;62414;53.436;8.828;2024-02-23T06:23:59;4.97;;;1.70;;
74059;SDS011;62414;53.436;8.828;2024-02-23T06:26:25;10.52;;;1.80;;
74059;SDS011;62414;53.436;8.828;2024-02-23T06:28:52;6.00;;;1.57;;
74059;SDS011;62414;53.436;8.828;2024-02-23T06:31:17;6.35;;;1.80;;
74059;SDS011;62414;53.436;8.828;2024-02-23T06:33:43;6.37;;;1.80;;
74059;SDS011;62414;53.436;8.828;2024-02-23T06:36:09;5.63;;;1.67;;
74059;SDS011;62414;53.436;8.828;2024-02-23T06:38:34;7.10;;;1.60;;
74059;SDS011;62414;53.436;8.828;2024-02-23T06:41:00;8.63;;;2.00;;
74059;SDS011;62414;53.436;8.828;2024-02-23T06:43:25;6.33;;;2.20;;
74059;SDS011;62414;53.436;8.828;2024-02-23T06:45:52;7.23;;;1.80;;
74059;SDS011;62414;53.436;8.828;2024-02-23T06:48:18;5.30;;;1.60;;
74059;SDS011;62414;53.436;8.828;2024-02-23T06:50:43;4.87;;;1.60;;
74059;SDS011;62414;53.436;8.828;2024-02-23T06:53:09;5.97;;;1.88;;
74059;SDS011;62414;53.436;8.828;2024-02-23T06:55:35;5.67;;;1.40;;
74059;SDS011;62414;53.436;8.828;2024-02-23T06:58:00;5.40;;;1.43;;
74059;SDS011;62414;53.436;8.828;2024-02-23T07:00:26;5.88;;;1.50;;
74059;SDS011;62414;53.436;8.828;2024-02-23T07:02:52;6.13;;;1.40;;
74059;SDS011;62414;53.436;8.828;2024-02-23T07:05:18;5.28;;;1.40;;
74059;SDS011;62414;53.436;8.828;2024-02-23T07:07:44;8.73;;;1.90;;
74059;SDS011;62414;53.436;8.828;2024-02-23T07:10:09;7.03;;;1.77;;
74059;SDS011;62414;53.436;8.828;2024-02-23T07:12:35;6.97;;;1.60;;
74059;SDS011;62414;53.436;8.828;2024-02-23T07:15:00;7.15;;;1.67;;
74059;SDS011;62414;53.436;8.828;2024-02-23T07:17:26;4.83;;;1.50;;
74059;SDS011;62414;53.436;8.828;2024-02-23T07:19:53;6.77;;;1.67;;
74059;SDS011;62414;53.436;8.828;2024-02-23T07:22:18;6.40;;;1.65;;
74059;SDS011;62414;53.436;8.828;2024-02-23T07:24:44;6.43;;;1.57;;
74059;SDS011;62414;53.436;8.828;2024-02-23T07:27:09;7.60;;;1.67;;
74059;SDS011;62414;53.436;8.828;2024-02-23T07:29:35;7.67;;;1.80;;
74059;SDS011;62414;53.436;8.828;2024-02-23T07:32:00;8.35;;;1.88;;
74059;SDS011;62414;53.436;8.828;2024-02-23T07:34:26;6.50;;;1.47;;
74059;SDS011;62414;53.436;8.828;2024-02-23T07:36:53;10.03;;;1.70;;
74059;SDS011;62414;53.436;8.828;2024-02-23T07:39:18;5.95;;;1.35;;
74059;SDS011;62414;53.436;8.828;2024-02-23T07:41:44;9.65;;;1.83;;
74059;SDS011;62414;53.436;8.828;2024-02-23T07:44:10;5.33;;;1.40;;
74059;SDS011;62414;53.436;8.828;2024-02-23T07:46:35;7.50;;;1.70;;
74059;SDS011;62414;53.436;8.828;2024-02-23T07:49:01;6.03;;;1.30;;
74059;SDS011;62414;53.436;8.828;2024-02-23T07:51:26;4.50;;;1.50;;
74059;SDS011;62414;53.436;8.828;2024-02-23T07:53:53;5.00;;;1.50;;
74059;SDS011;62414;53.436;8.828;2024-02-23T07:56:19;7.20;;;1.70;;
74059;SDS011;62414;53.436;8.828;2024-02-23T07:58:44;5.07;;;1.45;;
74059;SDS011;62414;53.436;8.828;2024-02-23T08:01:10;7.17;;;1.40;;
74059;SDS011;62414;53.436;8.828;2024-02-23T08:03:35;6.37;;;1.47;;
74059;SDS011;62414;53.436;8.828;2024-02-23T08:06:01;5.28;;;1.13;;
74059;SDS011;62414;53.436;8.828;2024-02-23T08:08:26;6.53;;;1.57;;
74059;SDS011;62414;53.436;8.828;2024-02-23T08:10:53;8.50;;;1.50;;
74059;SDS011;62414;53.436;8.828;2024-02-23T08:13:18;5.68;;;1.48;;
74059;SDS011;62414;53.436;8.828;2024-02-23T08:15:44;6.80;;;1.30;;
74059;SDS011;62414;53.436;8.828;2024-02-23T08:18:09;5.80;;;1.10;;
74059;SDS011;62414;53.436;8.828;2024-02-23T08:20:35;4.13;;;1.30;;
74059;SDS011;62414;53.436;8.828;2024-02-23T08:23:01;5.85;;;1.10;;
74059;SDS011;62414;53.436;8.828;2024-02-23T08:25:26;5.47;;;1.30;;
74059;SDS011;62414;53.436;8.828;2024-02-23T08:27:53;6.07;;;1.40;;
74059;SDS011;62414;53.436;8.828;2024-02-23T08:30:19;6.00;;;1.23;;
74059;SDS011;62414;53.436;8.828;2024-02-23T08:32:44;6.28;;;1.50;;
74059;SDS011;62414;53.436;8.828;2024-02-23T08:35:09;5.90;;;1.23;;
74059;SDS011;62414;53.436;8.828;2024-02-23T08:37:35;4.40;;;1.20;;
74059;SDS011;62414;53.436;8.828;2024-02-23T08:40:00;6.97;;;1.65;;
74059;SDS011;62414;53.436;8.828;2024-02-23T08:42:26;7.77;;;1.50;;
74059;SDS011;62414;53.436;8.828;2024-02-23T08:44:53;5.53;;;1.30;;
74059;SDS011;62414;53.436;8.828;2024-02-23T08:47:18;5.43;;;1.20;;
74059;SDS011;62414;53.436;8.828;2024-02-23T08:49:44;5.53;;;1.30;;
74059;SDS011;62414;53.436;8.828;2024-02-23T08:52:09;5.25;;;1.20;;
74059;SDS011;62414;53.436;8.828;2024-02-23T08:54:35;10.10;;;1.20;;
74059;SDS011;62414;53.436;8.828;2024-02-23T08:57:00;5.50;;;1.30;;
74059;SDS011;62414;53.436;8.828;2024-02-23T08:59:26;7.22;;;1.30;;
74059;SDS011;62414;53.436;8.828;2024-02-23T09:01:53;5.87;;;1.20;;
74059;SDS011;62414;53.436;8.828;2024-02-23T09:04:18;7.88;;;1.30;;
74059;SDS011;62414;53.436;8.828;2024-02-23T09:06:44;7.37;;;1.70;;
74059;SDS011;62414;53.436;8.828;2024-02-23T09:09:09;6.97;;;1.23;;
74059;SDS011;62414;53.436;8.828;2024-02-23T09:11:35;4.32;;;0.98;;
74059;SDS011;62414;53.436;8.828;2024-02-23T09:14:00;5.10;;;1.20;;
74059;SDS011;62414;53.436;8.828;2024-02-23T09:16:26;6.50;;;1.07;;
74059;SDS011;62414;53.436;8.828;2024-02-23T09:18:52;5.32;;;1.15;;
74059;SDS011;62414;53.436;8.828;2024-02-23T09:21:18;3.65;;;1.02;;
74059;SDS011;62414;53.436;8.828;2024-02-23T09:23:43;6.47;;;0.93;;
74059;SDS011;62414;53.436;8.828;2024-02-23T09:26:09;6.23;;;1.10;;
74059;SDS011;62414;53.436;8.828;2024-02-23T09:28:35;6.97;;;1.10;;
74059;SDS011;62414;53.436;8.828;2024-02-23T09:31:00;7.17;;;0.90;;
74059;SDS011;62414;53.436;8.828;2024-02-23T09:33:26;5.68;;;1.00;;
74059;SDS011;62414;53.436;8.828;2024-02-23T09:35:53;4.30;;;1.00;;
74059;SDS011;62414;53.436;8.828;2024-02-23T09:38:18;5.00;;;0.85;;
74059;SDS011;62414;53.436;8.828;2024-02-23T09:40:44;7.13;;;1.30;;
74059;SDS011;62414;53.436;8.828;2024-02-23T09:43:09;5.80;;;1.23;;
74059;SDS011;62414;53.436;8.828;2024-02-23T09:45:36;4.95;;;1.17;;
74059;SDS011;62414;53.436;8.828;2024-02-23T09:48:03;4.65;;;1.02;;
74059;SDS011;62414;53.436;8.828;2024-02-23T09:50:29;5.07;;;1.13;;
74059;SDS011;62414;53.436;8.828;2024-02-23T09:52:57;6.45;;;1.40;;
74059;SDS011;62414;53.436;8.828;2024-02-23T09:55:23;4.67;;;1.00;;
74059;SDS011;62414;53.436;8.828;2024-02-23T09:57:51;5.60;;;1.00;;
74059;SDS011;62414;53.436;8.828;2024-02-23T10:00:17;5.20;;;0.90;;
74059;SDS011;62414;53.436;8.828;2024-02-23T10:02:43;6.13;;;0.90;;
74059;SDS011;62414;53.436;8.828;2024-02-23T10:05:08;5.73;;;0.80;;
74059;SDS011;62414;53.436;8.828;2024-02-23T10:07:35;7.57;;;1.00;;
74059;SDS011;62414;53.436;8.828;2024-02-23T10:10:02;6.75;;;0.90;;
74059;SDS011;62414;53.436;8.828;2024-02-23T10:12:32;6.33;;;0.77;;
74059;SDS011;62414;53.436;8.828;2024-02-23T10:14:58;5.40;;;0.70;;
74059;SDS011;62414;53.436;8.828;2024-02-23T10:17:23;5.50;;;0.90;;
74059;SDS011;62414;53.436;8.828;2024-02-23T10:19:49;5.67;;;0.90;;
74059;SDS011;62414;53.436;8.828;2024-02-23T10:22:14;4.90;;;1.00;;
74059;SDS011;62414;53.436;8.828;2024-02-23T10:24:41;3.80;;;0.70;;
74059;SDS011;62414;53.436;8.828;2024-02-23T10:27:08;4.00;;;0.70;;
74059;SDS011;62414;53.436;8.828;2024-02-23T10:29:34;5.75;;;0.80;;
74059;SDS011;62414;53.436;8.828;2024-02-23T10:31:59;7.13;;;0.80;;
74059;SDS011;62414;53.436;8.828;2024-02-23T10:34:26;7.33;;;0.60;;
74059;SDS011;62414;53.436;8.828;2024-02-23T10:36:52;4.15;;;0.57;;
74059;SDS011;62414;53.436;8.828;2024-02-23T10:39:18;2.33;;;0.43;;
74059;SDS011;62414;53.436;8.828;2024-02-23T10:41:46;4.45;;;0.50;;
74059;SDS011;62414;53.436;8.828;2024-02-23T10:44:14;5.40;;;0.57;;
74059;SDS011;62414;53.436;8.828;2024-02-23T10:46:40;5.32;;;0.50;;
74059;SDS011;62414;53.436;8.828;2024-02-23T10:49:06;4.85;;;0.52;;
74059;SDS011;62414;53.436;8.828;2024-02-23T10:51:32;6.13;;;0.60;;
74059;SDS011;62414;53.436;8.828;2024-02-23T10:53:58;3.30;;;0.50;;
74059;SDS011;62414;53.436;8.828;2024-02-23T10:56:25;4.03;;;0.80;;
74059;SDS011;62414;53.436;8.828;2024-02-23T10:58:50;3.23;;;0.60;;
74059;SDS011;62414;53.436;8.828;2024-02-23T11:01:17;4.68;;;1.00;;
74059;SDS011;62414;53.436;8.828;2024-02-23T11:03:44;3.92;;;1.08;;
74059;SDS011;62414;53.436;8.828;2024-02-23T11:06:10;5.87;;;1.23;;
74059;SDS011;62414;53.436;8.828;2024-02-23T11:08:35;3.45;;;1.17;;
74059;SDS011;62414;53.436;8.828;2024-02-23T11:11:06;5.13;;;1.30;;
74059;SDS011;62414;53.436;8.828;2024-02-23T11:13:34;5.90;;;1.45;;
74059;SDS011;62414;53.436;8.828;2024-02-23T11:16:02;3.55;;;1.40;;
74059;SDS011;62414;53.436;8.828;2024-02-23T11:18:30;5.72;;;1.30;;
74059;SDS011;62414;53.436;8.828;2024-02-23T11:20:56;3.78;;;1.10;;
74059;SDS011;62414;53.436;8.828;2024-02-23T11:23:24;7.33;;;1.50;;
74059;SDS011;62414;53.436;8.828;2024-02-23T11:25:59;5.68;;;1.63;;
74059;SDS011;62414;53.436;8.828;2024-02-23T11:28:29;4.68;;;1.30;;
74059;SDS011;62414;53.436;8.828;2024-02-23T11:30:55;5.23;;;1.40;;
74059;SDS011;62414;53.436;8.828;2024-02-23T11:33:27;5.32;;;1.50;;
74059;SDS011;62414;53.436;8.828;2024-02-23T11:35:54;4.53;;;1.23;;
74059;SDS011;62414;53.436;8.828;2024-02-23T11:38:29;3.97;;;1.40;;
74059;SDS011;62414;53.436;8.828;2024-02-23T11:40:55;8.02;;;1.52;;
74059;SDS011;62414;53.436;8.828;2024-02-23T11:43:21;8.07;;;1.40;;
74059;SDS011;62414;53.436;8.828;2024-02-23T11:45:47;5.75;;;1.25;;
74059;SDS011;62414;53.436;8.828;2024-02-23T11:48:12;5.13;;;1.20;;
74059;SDS011;62414;53.436;8.828;2024-02-23T11:50:38;5.05;;;1.30;;
74059;SDS011;62414;53.436;8.828;2024-02-23T11:53:05;6.27;;;1.40;;
74059;SDS011;62414;53.436;8.828;2024-02-23T11:55:30;4.82;;;1.40;;
74059;SDS011;62414;53.436;8.828;2024-02-23T11:57:56;5.37;;;1.50;;
74059;SDS011;62414;53.436;8.828;2024-02-23T12:00:23;6.90;;;1.42;;
74059;SDS011;62414;53.436;8.828;2024-02-23T12:02:48;5.80;;;1.20;;
74059;SDS011;62414;53.436;8.828;2024-02-23T12:05:14;7.93;;;1.50;;
74059;SDS011;62414;53.436;8.828;2024-02-23T12:07:40;4.40;;;1.07;;
74059;SDS011;62414;53.436;8.828;2024-02-23T12:10:07;4.63;;;1.20;;
74059;SDS011;62414;53.436;8.828;2024-02-23T12:12:33;5.47;;;1.23;;
74059;SDS011;62414;53.436;8.828;2024-02-23T12:14:58;3.37;;;1.20;;
74059;SDS011;62414;53.436;8.828;2024-02-23T12:17:24;6.90;;;1.30;;
74059;SDS011;62414;53.436;8.828;2024-02-23T12:19:49;4.43;;;1.20;;
74059;SDS011;62414;53.436;8.828;2024-02-23T12:22:15;4.22;;;1.35;;
74059;SDS011;62414;53.436;8.828;2024-02-23T12:24:41;3.93;;;1.10;;
74059;SDS011;62414;53.436;8.828;2024-02-23T12:27:08;5.45;;;1.40;;
74059;SDS011;62414;53.436;8.828;2024-02-23T12:29:33;4.22;;;1.27;;
74059;SDS011;62414;53.436;8.828;2024-02-23T12:32:02;5.10;;;1.30;;
74059;SDS011;62414;53.436;8.828;2024-02-23T12:34:29;7.68;;;1.58;;
74059;SDS011;62414;53.436;8.828;2024-02-23T12:37:14;8.30;;;1.50;;
74059;SDS011;62414;53.436;8.828;2024-02-23T12:39:40;7.37;;;1.50;;
74059;SDS011;62414;53.436;8.828;2024-02-23T12:42:05;6.53;;;1.60;;
74059;SDS011;62414;53.436;8.828;2024-02-23T12:44:32;6.80;;;1.50;;
74059;SDS011;62414;53.436;8.828;2024-02-23T12:46:57;5.35;;;1.40;;
74059;SDS011;62414;53.436;8.828;2024-02-23T12:49:23;4.07;;;1.73;;
74059;SDS011;62414;53.436;8.828;2024-02-23T12:51:48;5.57;;;1.73;;
74059;SDS011;62414;53.436;8.828;2024-02-23T12:54:14;5.88;;;1.80;;
74059;SDS011;62414;53.436;8.828;2024-02-23T12:56:40;6.87;;;1.60;;
74059;SDS011;62414;53.436;8.828;2024-02-23T12:59:05;3.67;;;1.30;;
74059;SDS011;62414;53.436;8.828;2024-02-23T13:01:32;4.93;;;1.53;;
74059;SDS011;62414;53.436;8.828;2024-02-23T13:03:57;6.68;;;1.90;;
74059;SDS011;62414;53.436;8.828;2024-02-23T13:06:23;5.67;;;1.27;;
74059;SDS011;62414;53.436;8.828;2024-02-23T13:08:48;4.77;;;1.40;;
74059;SDS011;62414;53.436;8.828;2024-02-23T13:11:14;4.45;;;1.23;;
74059;SDS011;62414;53.436;8.828;2024-02-23T13:13:39;5.43;;;1.73;;
74059;SDS011;62414;53.436;8.828;2024-02-23T13:16:05;5.17;;;1.40;;
74059;SDS011;62414;53.436;8.828;2024-02-23T13:18:32;3.70;;;1.23;;
74059;SDS011;62414;53.436;8.828;2024-02-23T13:20:58;6.78;;;1.60;;
74059;SDS011;62414;53.436;8.828;2024-02-23T13:23:23;5.43;;;1.57;;
74059;SDS011;62414;53.436;8.828;2024-02-23T13:25:49;4.20;;;1.25;;
74059;SDS011;62414;53.436;8.828;2024-02-23T13:28:14;5.17;;;1.20;;
74059;SDS011;62414;53.436;8.828;2024-02-23T13:30:40;4.27;;;1.20;;
74059;SDS011;62414;53.436;8.828;2024-02-23T13:33:05;6.38;;;1.42;;
74059;SDS011;62414;53.436;8.828;2024-02-23T13:35:32;5.10;;;1.20;;
74059;SDS011;62414;53.436;8.828;2024-02-23T13:37:58;5.30;;;1.13;;
74059;SDS011;62414;53.436;8.828;2024-02-23T13:40:24;4.07;;;1.00;;
74059;SDS011;62414;53.436;8.828;2024-02-23T13:42:50;5.93;;;1.20;;
74059;SDS011;62414;53.436;8.828;2024-02-23T13:45:15;4.25;;;1.23;;
74059;SDS011;62414;53.436;8.828;2024-02-23T13:47:42;5.97;;;1.50;;
74059;SDS011;62414;53.436;8.828;2024-02-23T13:50:07;5.30;;;1.10;;
74059;SDS011;62414;53.436;8.828;2024-02-23T13:52:35;5.47;;;1.50;;
74059;SDS011;62414;53.436;8.828;2024-02-23T13:55:00;4.78;;;1.20;;
74059;SDS011;62414;53.436;8.828;2024-02-23T13:57:26;4.60;;;1.30;;
74059;SDS011;62414;53.436;8.828;2024-02-23T13:59:51;5.57;;;1.10;;
74059;SDS011;62414;53.436;8.828;2024-02-23T14:02:23;6.15;;;1.17;;
74059;SDS011;62414;53.436;8.828;2024-02-23T14:04:50;3.70;;;0.88;;
74059;SDS011;62414;53.436;8.828;2024-02-23T14:07:15;4.70;;;1.10;;
74059;SDS011;62414;53.436;8.828;2024-02-23T14:09:42;4.73;;;1.00;;
74059;SDS011;62414;53.436;8.828;2024-02-23T14:12:08;4.07;;;1.00;;
74059;SDS011;62414;53.436;8.828;2024-02-23T14:14:33;3.33;;;0.90;;
74059;SDS011;62414;53.436;8.828;2024-02-23T14:16:59;5.20;;;1.10;;
74059;SDS011;62414;53.436;8.828;2024-02-23T14:19:24;3.23;;;1.00;;
74059;SDS011;62414;53.436;8.828;2024-02-23T14:21:50;6.07;;;1.50;;
74059;SDS011;62414;53.436;8.828;2024-02-23T14:24:15;6.43;;;1.30;;
74059;SDS011;62414;53.436;8.828;2024-02-23T14:26:42;3.70;;;1.00;;
74059;SDS011;62414;53.436;8.828;2024-02-23T14:29:08;4.30;;;1.02;;
74059;SDS011;62414;53.436;8.828;2024-02-23T14:31:33;3.20;;;0.93;;
74059;SDS011;62414;53.436;8.828;2024-02-23T14:33:59;5.50;;;0.98;;
74059;SDS011;62414;53.436;8.828;2024-02-23T14:36:24;3.60;;;1.00;;
74059;SDS011;62414;53.436;8.828;2024-02-23T14:38:50;5.53;;;1.13;;
74059;SDS011;62414;53.436;8.828;2024-02-23T14:41:15;4.50;;;0.80;;